This is the latest recevied weather packets stored in our database for station/object KF0FSA. If no packets are shown the sender has not sent any weather packets the latest 10 day(s).
| Time | Temp. | Humidity | Pressure | Rain* | Wind** | Luminosity | Snow |
|---|---|---|---|---|---|---|---|
| 1777571291 | 11.11° C | 40% | 965.7 hPa | 0 mm | - | 1163 W/m² | - |
| 1777570991 | 10° C | 44% | 965.8 hPa | 0 mm | - | 1083 W/m² | - |
| 1777570688 | 9.44° C | 42% | 966.5 hPa | 0 mm | - | 233 W/m² | - |
| 1777570512 | 10° C | 43% | 966.5 hPa | 0 mm | - | 283 W/m² | - |
| 1777570088 | 10° C | 44% | 966.4 hPa | 0 mm | - | 368 W/m² | - |
| 1777569788 | 10° C | 44% | 966.6 hPa | 0 mm | - | 410 W/m² | - |
| 1777569489 | 10° C | 43% | 966.7 hPa | 0 mm | - | 328 W/m² | - |
| 1777569186 | 10.56° C | 42% | 966.5 hPa | 0 mm | - | 556 W/m² | - |
| 1777568885 | 10° C | 45% | 966.2 hPa | 0 mm | - | 1054 W/m² | - |
| 1777568583 | 10° C | 44% | 966.7 hPa | 0 mm | - | 324 W/m² | - |
| 1777568408 | 10.56° C | 43% | 966.5 hPa | 0 mm | - | 537 W/m² | - |
| 1777567983 | 10.56° C | 43% | 966.3 hPa | 0 mm | - | 991 W/m² | - |
| 1777567683 | 10.56° C | 45% | 966.3 hPa | 0 mm | - | 943 W/m² | - |
| 1777567396 | 10° C | 45% | 966.3 hPa | 0 mm | - | 907 W/m² | - |
| 1777567083 | 10° C | 46% | 966.3 hPa | 0 mm | - | 844 W/m² | - |
| 1777566779 | 10° C | 47% | 966.2 hPa | 0 mm | - | 829 W/m² | - |
| 1777566477 | 9.44° C | 45% | 966.2 hPa | 0 mm | - | 806 W/m² | - |
| 1777566174 | 9.44° C | 46% | 966.1 hPa | 0 mm | - | 798 W/m² | - |
| 1777565999 | 9.44° C | 45% | 966.2 hPa | 0 mm | - | 786 W/m² | - |
| 1777565575 | 9.44° C | 48% | 966.2 hPa | 0 mm | - | 776 W/m² | - |
| 1777565274 | 9.44° C | 45% | 966.2 hPa | 0 mm | - | 766 W/m² | - |
| 1777564974 | 9.44° C | 48% | 966.1 hPa | 0 mm | - | 752 W/m² | - |
| 1777564674 | 8.89° C | 46% | 966.1 hPa | 0 mm | - | 743 W/m² | - |
| 1777564499 | 8.89° C | 46% | 966.1 hPa | 0 mm | - | 731 W/m² | - |
| 1777564076 | 8.33° C | 49% | 966.2 hPa | 0 mm | - | 719 W/m² | - |
* Rain latest hour (hover to see other rain measurements)
** Current wind speed in m/s (hover to see current wind gust speed)